sensor_id;sensor_type;location;lat;lon;timestamp;P1;durP1;ratioP1;P2;durP2;ratioP2
47882;SDS011;37739;50.350;7.578;2023-05-25T00:01:26;7.03;;;3.40;;
47882;SDS011;37739;50.350;7.578;2023-05-25T00:03:58;5.23;;;3.60;;
47882;SDS011;37739;50.350;7.578;2023-05-25T00:06:24;9.40;;;4.63;;
47882;SDS011;37739;50.350;7.578;2023-05-25T00:08:50;5.90;;;3.87;;
47882;SDS011;37739;50.350;7.578;2023-05-25T00:11:19;5.13;;;3.30;;
47882;SDS011;37739;50.350;7.578;2023-05-25T00:13:47;5.83;;;3.90;;
47882;SDS011;37739;50.350;7.578;2023-05-25T00:16:15;5.60;;;3.90;;
47882;SDS011;37739;50.350;7.578;2023-05-25T00:18:40;4.90;;;3.47;;
47882;SDS011;37739;50.350;7.578;2023-05-25T00:21:07;4.50;;;3.50;;
47882;SDS011;37739;50.350;7.578;2023-05-25T00:23:32;5.13;;;3.90;;
47882;SDS011;37739;50.350;7.578;2023-05-25T00:25:58;4.27;;;3.87;;
47882;SDS011;37739;50.350;7.578;2023-05-25T00:28:23;9.40;;;4.00;;
47882;SDS011;37739;50.350;7.578;2023-05-25T00:30:51;6.00;;;3.80;;
47882;SDS011;37739;50.350;7.578;2023-05-25T00:33:19;6.60;;;3.80;;
47882;SDS011;37739;50.350;7.578;2023-05-25T00:35:45;5.87;;;3.67;;
47882;SDS011;37739;50.350;7.578;2023-05-25T00:38:15;5.10;;;3.60;;
47882;SDS011;37739;50.350;7.578;2023-05-25T00:40:43;5.93;;;3.60;;
47882;SDS011;37739;50.350;7.578;2023-05-25T00:43:09;6.33;;;4.10;;
47882;SDS011;37739;50.350;7.578;2023-05-25T00:45:36;6.20;;;4.30;;
47882;SDS011;37739;50.350;7.578;2023-05-25T00:48:02;3.70;;;3.30;;
47882;SDS011;37739;50.350;7.578;2023-05-25T00:53:06;4.97;;;3.20;;
47882;SDS011;37739;50.350;7.578;2023-05-25T00:55:36;6.00;;;3.30;;
47882;SDS011;37739;50.350;7.578;2023-05-25T00:58:05;6.73;;;3.70;;
47882;SDS011;37739;50.350;7.578;2023-05-25T01:00:32;5.20;;;3.27;;
47882;SDS011;37739;50.350;7.578;2023-05-25T01:03:03;4.63;;;3.23;;
47882;SDS011;37739;50.350;7.578;2023-05-25T01:05:36;7.03;;;3.40;;
47882;SDS011;37739;50.350;7.578;2023-05-25T01:08:04;5.60;;;3.40;;
47882;SDS011;37739;50.350;7.578;2023-05-25T01:10:32;5.70;;;3.90;;
47882;SDS011;37739;50.350;7.578;2023-05-25T01:13:04;6.70;;;3.67;;
47882;SDS011;37739;50.350;7.578;2023-05-25T01:15:35;5.03;;;3.67;;
47882;SDS011;37739;50.350;7.578;2023-05-25T01:18:04;4.53;;;4.10;;
47882;SDS011;37739;50.350;7.578;2023-05-25T01:20:29;6.70;;;3.70;;
47882;SDS011;37739;50.350;7.578;2023-05-25T01:23:07;5.33;;;3.80;;
47882;SDS011;37739;50.350;7.578;2023-05-25T01:25:42;4.30;;;3.20;;
47882;SDS011;37739;50.350;7.578;2023-05-25T01:28:16;5.33;;;3.60;;
47882;SDS011;37739;50.350;7.578;2023-05-25T01:30:44;6.07;;;3.70;;
47882;SDS011;37739;50.350;7.578;2023-05-25T01:33:13;4.77;;;3.90;;
47882;SDS011;37739;50.350;7.578;2023-05-25T01:35:42;5.57;;;3.50;;
47882;SDS011;37739;50.350;7.578;2023-05-25T01:38:13;5.00;;;3.47;;
47882;SDS011;37739;50.350;7.578;2023-05-25T01:40:38;7.00;;;4.27;;
47882;SDS011;37739;50.350;7.578;2023-05-25T01:43:04;5.67;;;3.70;;
47882;SDS011;37739;50.350;7.578;2023-05-25T01:45:32;8.80;;;4.40;;
47882;SDS011;37739;50.350;7.578;2023-05-25T01:50:32;5.10;;;3.97;;
47882;SDS011;37739;50.350;7.578;2023-05-25T01:53:08;4.30;;;3.23;;
47882;SDS011;37739;50.350;7.578;2023-05-25T01:55:41;6.70;;;3.60;;
47882;SDS011;37739;50.350;7.578;2023-05-25T01:58:12;5.60;;;4.30;;
47882;SDS011;37739;50.350;7.578;2023-05-25T02:00:40;4.70;;;3.60;;
47882;SDS011;37739;50.350;7.578;2023-05-25T02:03:06;5.80;;;3.90;;
47882;SDS011;37739;50.350;7.578;2023-05-25T02:05:33;3.70;;;3.27;;
47882;SDS011;37739;50.350;7.578;2023-05-25T02:07:59;6.67;;;3.63;;
47882;SDS011;37739;50.350;7.578;2023-05-25T02:10:24;5.40;;;3.97;;
47882;SDS011;37739;50.350;7.578;2023-05-25T02:12:50;4.93;;;3.63;;
47882;SDS011;37739;50.350;7.578;2023-05-25T02:15:17;4.70;;;3.77;;
47882;SDS011;37739;50.350;7.578;2023-05-25T02:17:43;4.07;;;3.17;;
47882;SDS011;37739;50.350;7.578;2023-05-25T02:20:08;4.63;;;3.57;;
47882;SDS011;37739;50.350;7.578;2023-05-25T02:22:35;5.00;;;3.40;;
47882;SDS011;37739;50.350;7.578;2023-05-25T02:25:02;6.17;;;4.30;;
47882;SDS011;37739;50.350;7.578;2023-05-25T02:27:28;5.80;;;4.10;;
47882;SDS011;37739;50.350;7.578;2023-05-25T02:29:53;6.00;;;3.87;;
47882;SDS011;37739;50.350;7.578;2023-05-25T02:32:18;5.30;;;3.73;;
47882;SDS011;37739;50.350;7.578;2023-05-25T02:34:46;5.73;;;4.30;;
47882;SDS011;37739;50.350;7.578;2023-05-25T02:37:12;5.27;;;3.70;;
47882;SDS011;37739;50.350;7.578;2023-05-25T02:39:37;5.50;;;4.03;;
47882;SDS011;37739;50.350;7.578;2023-05-25T02:42:03;5.57;;;4.10;;
47882;SDS011;37739;50.350;7.578;2023-05-25T02:44:31;5.03;;;3.90;;
47882;SDS011;37739;50.350;7.578;2023-05-25T02:46:56;6.70;;;4.30;;
47882;SDS011;37739;50.350;7.578;2023-05-25T02:49:21;5.30;;;4.13;;
47882;SDS011;37739;50.350;7.578;2023-05-25T02:51:47;5.80;;;3.90;;
47882;SDS011;37739;50.350;7.578;2023-05-25T02:54:14;5.43;;;4.30;;
47882;SDS011;37739;50.350;7.578;2023-05-25T02:56:41;10.80;;;5.00;;
47882;SDS011;37739;50.350;7.578;2023-05-25T02:59:06;6.27;;;4.07;;
47882;SDS011;37739;50.350;7.578;2023-05-25T03:01:34;5.20;;;3.77;;
47882;SDS011;37739;50.350;7.578;2023-05-25T03:03:59;6.90;;;4.20;;
47882;SDS011;37739;50.350;7.578;2023-05-25T03:06:24;6.90;;;4.63;;
47882;SDS011;37739;50.350;7.578;2023-05-25T03:08:50;5.53;;;4.30;;
47882;SDS011;37739;50.350;7.578;2023-05-25T03:11:15;7.10;;;4.37;;
47882;SDS011;37739;50.350;7.578;2023-05-25T03:13:43;6.23;;;4.23;;
47882;SDS011;37739;50.350;7.578;2023-05-25T03:16:08;5.07;;;4.23;;
47882;SDS011;37739;50.350;7.578;2023-05-25T03:18:33;4.70;;;3.80;;
47882;SDS011;37739;50.350;7.578;2023-05-25T03:21:02;6.90;;;4.23;;
47882;SDS011;37739;50.350;7.578;2023-05-25T03:23:27;5.50;;;3.77;;
47882;SDS011;37739;50.350;7.578;2023-05-25T03:25:55;5.43;;;4.70;;
47882;SDS011;37739;50.350;7.578;2023-05-25T03:28:25;4.30;;;3.87;;
47882;SDS011;37739;50.350;7.578;2023-05-25T03:30:50;7.50;;;4.70;;
47882;SDS011;37739;50.350;7.578;2023-05-25T03:33:15;5.10;;;4.07;;
47882;SDS011;37739;50.350;7.578;2023-05-25T03:35:41;6.67;;;4.57;;
47882;SDS011;37739;50.350;7.578;2023-05-25T03:38:06;6.67;;;5.07;;
47882;SDS011;37739;50.350;7.578;2023-05-25T03:40:32;6.70;;;4.73;;
47882;SDS011;37739;50.350;7.578;2023-05-25T03:42:57;5.77;;;4.60;;
47882;SDS011;37739;50.350;7.578;2023-05-25T03:45:24;5.50;;;4.40;;
47882;SDS011;37739;50.350;7.578;2023-05-25T03:47:50;5.13;;;4.63;;
47882;SDS011;37739;50.350;7.578;2023-05-25T03:50:15;5.00;;;4.40;;
47882;SDS011;37739;50.350;7.578;2023-05-25T03:52:40;5.20;;;4.70;;
47882;SDS011;37739;50.350;7.578;2023-05-25T03:55:06;6.50;;;5.23;;
47882;SDS011;37739;50.350;7.578;2023-05-25T03:57:33;7.87;;;5.23;;
47882;SDS011;37739;50.350;7.578;2023-05-25T03:59:59;5.23;;;4.60;;
47882;SDS011;37739;50.350;7.578;2023-05-25T04:02:24;6.97;;;5.43;;
47882;SDS011;37739;50.350;7.578;2023-05-25T04:04:50;7.37;;;5.37;;
47882;SDS011;37739;50.350;7.578;2023-05-25T04:07:17;8.57;;;5.50;;
47882;SDS011;37739;50.350;7.578;2023-05-25T04:09:45;8.30;;;5.40;;
47882;SDS011;37739;50.350;7.578;2023-05-25T04:12:13;8.17;;;5.37;;
47882;SDS011;37739;50.350;7.578;2023-05-25T04:14:41;10.10;;;6.27;;
47882;SDS011;37739;50.350;7.578;2023-05-25T04:17:06;10.97;;;5.47;;
47882;SDS011;37739;50.350;7.578;2023-05-25T04:19:34;5.60;;;4.90;;
47882;SDS011;37739;50.350;7.578;2023-05-25T04:22:02;7.00;;;5.10;;
47882;SDS011;37739;50.350;7.578;2023-05-25T04:24:28;9.30;;;5.30;;
47882;SDS011;37739;50.350;7.578;2023-05-25T04:26:53;8.20;;;5.33;;
47882;SDS011;37739;50.350;7.578;2023-05-25T04:29:23;7.30;;;5.00;;
47882;SDS011;37739;50.350;7.578;2023-05-25T04:31:50;6.33;;;5.37;;
47882;SDS011;37739;50.350;7.578;2023-05-25T04:34:18;7.37;;;5.77;;
47882;SDS011;37739;50.350;7.578;2023-05-25T04:36:48;6.03;;;4.80;;
47882;SDS011;37739;50.350;7.578;2023-05-25T04:39:17;5.63;;;5.13;;
47882;SDS011;37739;50.350;7.578;2023-05-25T04:41:45;7.20;;;4.60;;
47882;SDS011;37739;50.350;7.578;2023-05-25T04:44:10;7.57;;;6.10;;
47882;SDS011;37739;50.350;7.578;2023-05-25T04:46:37;9.77;;;5.50;;
47882;SDS011;37739;50.350;7.578;2023-05-25T04:49:03;7.73;;;5.90;;
47882;SDS011;37739;50.350;7.578;2023-05-25T04:51:29;6.17;;;5.40;;
47882;SDS011;37739;50.350;7.578;2023-05-25T04:53:56;8.27;;;5.33;;
47882;SDS011;37739;50.350;7.578;2023-05-25T04:56:24;5.77;;;4.93;;
47882;SDS011;37739;50.350;7.578;2023-05-25T04:58:50;7.40;;;5.00;;
47882;SDS011;37739;50.350;7.578;2023-05-25T05:01:16;8.90;;;5.80;;
47882;SDS011;37739;50.350;7.578;2023-05-25T05:03:44;5.50;;;4.07;;
47882;SDS011;37739;50.350;7.578;2023-05-25T05:06:10;8.00;;;5.40;;
47882;SDS011;37739;50.350;7.578;2023-05-25T05:08:35;5.90;;;4.70;;
47882;SDS011;37739;50.350;7.578;2023-05-25T05:11:06;7.70;;;4.80;;
47882;SDS011;37739;50.350;7.578;2023-05-25T05:13:31;6.00;;;4.90;;
47882;SDS011;37739;50.350;7.578;2023-05-25T05:15:57;7.60;;;5.17;;
47882;SDS011;37739;50.350;7.578;2023-05-25T05:18:22;6.10;;;5.10;;
47882;SDS011;37739;50.350;7.578;2023-05-25T05:20:47;5.50;;;5.00;;
47882;SDS011;37739;50.350;7.578;2023-05-25T05:23:15;6.57;;;5.10;;
47882;SDS011;37739;50.350;7.578;2023-05-25T05:25:43;9.70;;;5.60;;
47882;SDS011;37739;50.350;7.578;2023-05-25T05:28:15;7.77;;;5.47;;
47882;SDS011;37739;50.350;7.578;2023-05-25T05:30:42;4.60;;;4.20;;
47882;SDS011;37739;50.350;7.578;2023-05-25T05:33:13;9.27;;;5.73;;
47882;SDS011;37739;50.350;7.578;2023-05-25T05:35:38;5.87;;;4.60;;
47882;SDS011;37739;50.350;7.578;2023-05-25T05:38:06;7.23;;;5.30;;
47882;SDS011;37739;50.350;7.578;2023-05-25T05:40:34;7.60;;;4.13;;
47882;SDS011;37739;50.350;7.578;2023-05-25T05:43:01;6.20;;;5.03;;
47882;SDS011;37739;50.350;7.578;2023-05-25T05:45:26;5.13;;;3.63;;
47882;SDS011;37739;50.350;7.578;2023-05-25T05:47:54;6.70;;;5.80;;
47882;SDS011;37739;50.350;7.578;2023-05-25T05:50:19;6.87;;;5.13;;
47882;SDS011;37739;50.350;7.578;2023-05-25T05:52:45;7.50;;;5.07;;
47882;SDS011;37739;50.350;7.578;2023-05-25T05:55:12;10.20;;;5.30;;
47882;SDS011;37739;50.350;7.578;2023-05-25T05:57:40;5.77;;;4.93;;
47882;SDS011;37739;50.350;7.578;2023-05-25T06:00:05;6.40;;;5.07;;
47882;SDS011;37739;50.350;7.578;2023-05-25T06:02:34;6.27;;;5.47;;
47882;SDS011;37739;50.350;7.578;2023-05-25T06:04:59;5.17;;;4.37;;
47882;SDS011;37739;50.350;7.578;2023-05-25T06:07:25;5.63;;;4.47;;
47882;SDS011;37739;50.350;7.578;2023-05-25T06:09:52;6.50;;;4.90;;
47882;SDS011;37739;50.350;7.578;2023-05-25T06:12:18;6.57;;;5.03;;
47882;SDS011;37739;50.350;7.578;2023-05-25T06:14:43;5.23;;;4.60;;
47882;SDS011;37739;50.350;7.578;2023-05-25T06:17:15;7.13;;;4.87;;
47882;SDS011;37739;50.350;7.578;2023-05-25T06:19:41;5.33;;;4.83;;
47882;SDS011;37739;50.350;7.578;2023-05-25T06:22:06;6.50;;;5.70;;
47882;SDS011;37739;50.350;7.578;2023-05-25T06:24:31;6.23;;;5.40;;
47882;SDS011;37739;50.350;7.578;2023-05-25T06:26:59;7.53;;;4.60;;
47882;SDS011;37739;50.350;7.578;2023-05-25T06:29:27;7.57;;;5.40;;
47882;SDS011;37739;50.350;7.578;2023-05-25T06:31:52;7.13;;;6.00;;
47882;SDS011;37739;50.350;7.578;2023-05-25T06:34:17;6.27;;;5.33;;
47882;SDS011;37739;50.350;7.578;2023-05-25T06:36:43;8.67;;;5.20;;
47882;SDS011;37739;50.350;7.578;2023-05-25T06:39:11;8.30;;;5.60;;
47882;SDS011;37739;50.350;7.578;2023-05-25T06:41:37;6.47;;;5.20;;
47882;SDS011;37739;50.350;7.578;2023-05-25T06:44:04;7.37;;;5.67;;
47882;SDS011;37739;50.350;7.578;2023-05-25T06:46:30;6.13;;;4.80;;
47882;SDS011;37739;50.350;7.578;2023-05-25T06:48:57;5.93;;;4.80;;
47882;SDS011;37739;50.350;7.578;2023-05-25T06:51:28;7.00;;;5.97;;
47882;SDS011;37739;50.350;7.578;2023-05-25T06:53:58;6.90;;;5.40;;
47882;SDS011;37739;50.350;7.578;2023-05-25T06:56:26;7.93;;;5.77;;
47882;SDS011;37739;50.350;7.578;2023-05-25T06:58:51;10.63;;;5.20;;
47882;SDS011;37739;50.350;7.578;2023-05-25T07:01:17;7.73;;;5.57;;
47882;SDS011;37739;50.350;7.578;2023-05-25T07:03:42;6.53;;;5.43;;
47882;SDS011;37739;50.350;7.578;2023-05-25T07:06:10;9.23;;;6.10;;
47882;SDS011;37739;50.350;7.578;2023-05-25T07:08:36;9.43;;;6.70;;
47882;SDS011;37739;50.350;7.578;2023-05-25T07:11:02;7.93;;;6.63;;
47882;SDS011;37739;50.350;7.578;2023-05-25T07:13:27;8.70;;;6.37;;
47882;SDS011;37739;50.350;7.578;2023-05-25T07:15:52;8.53;;;5.10;;
47882;SDS011;37739;50.350;7.578;2023-05-25T07:18:18;10.80;;;7.03;;
47882;SDS011;37739;50.350;7.578;2023-05-25T07:20:48;9.40;;;5.93;;
47882;SDS011;37739;50.350;7.578;2023-05-25T07:23:13;6.97;;;5.77;;
47882;SDS011;37739;50.350;7.578;2023-05-25T07:25:43;5.67;;;5.00;;
47882;SDS011;37739;50.350;7.578;2023-05-25T07:28:09;6.53;;;5.80;;
47882;SDS011;37739;50.350;7.578;2023-05-25T07:30:37;7.97;;;5.37;;
47882;SDS011;37739;50.350;7.578;2023-05-25T07:33:04;8.90;;;6.27;;
47882;SDS011;37739;50.350;7.578;2023-05-25T07:35:29;8.90;;;6.83;;
47882;SDS011;37739;50.350;7.578;2023-05-25T07:37:58;8.57;;;6.10;;
47882;SDS011;37739;50.350;7.578;2023-05-25T07:40:24;7.73;;;6.50;;
47882;SDS011;37739;50.350;7.578;2023-05-25T07:42:55;9.83;;;7.60;;
47882;SDS011;37739;50.350;7.578;2023-05-25T07:45:22;8.93;;;6.27;;
47882;SDS011;37739;50.350;7.578;2023-05-25T07:47:48;8.67;;;6.20;;
47882;SDS011;37739;50.350;7.578;2023-05-25T07:50:19;10.03;;;5.57;;
47882;SDS011;37739;50.350;7.578;2023-05-25T07:52:46;7.43;;;6.00;;
47882;SDS011;37739;50.350;7.578;2023-05-25T07:55:12;8.90;;;6.60;;
47882;SDS011;37739;50.350;7.578;2023-05-25T07:57:37;7.57;;;5.10;;
47882;SDS011;37739;50.350;7.578;2023-05-25T08:00:02;8.70;;;5.87;;
47882;SDS011;37739;50.350;7.578;2023-05-25T08:02:37;9.97;;;5.67;;
47882;SDS011;37739;50.350;7.578;2023-05-25T08:05:04;8.70;;;6.20;;
47882;SDS011;37739;50.350;7.578;2023-05-25T08:07:31;6.83;;;5.10;;
47882;SDS011;37739;50.350;7.578;2023-05-25T08:09:59;12.90;;;6.10;;
47882;SDS011;37739;50.350;7.578;2023-05-25T08:12:24;6.13;;;4.33;;
47882;SDS011;37739;50.350;7.578;2023-05-25T08:14:53;6.10;;;4.67;;
47882;SDS011;37739;50.350;7.578;2023-05-25T08:17:19;8.50;;;5.40;;
47882;SDS011;37739;50.350;7.578;2023-05-25T08:19:45;6.80;;;5.20;;
47882;SDS011;37739;50.350;7.578;2023-05-25T08:22:12;10.80;;;5.70;;
47882;SDS011;37739;50.350;7.578;2023-05-25T08:24:39;8.67;;;5.07;;
47882;SDS011;37739;50.350;7.578;2023-05-25T08:27:07;7.10;;;5.53;;
47882;SDS011;37739;50.350;7.578;2023-05-25T08:29:33;5.27;;;4.50;;
47882;SDS011;37739;50.350;7.578;2023-05-25T08:31:58;7.70;;;5.33;;
47882;SDS011;37739;50.350;7.578;2023-05-25T08:34:23;8.97;;;5.33;;
47882;SDS011;37739;50.350;7.578;2023-05-25T08:36:55;5.97;;;4.60;;
47882;SDS011;37739;50.350;7.578;2023-05-25T08:39:25;7.10;;;4.00;;
47882;SDS011;37739;50.350;7.578;2023-05-25T08:41:53;7.47;;;3.87;;
47882;SDS011;37739;50.350;7.578;2023-05-25T08:44:21;6.87;;;4.33;;
47882;SDS011;37739;50.350;7.578;2023-05-25T08:46:46;6.93;;;5.10;;
47882;SDS011;37739;50.350;7.578;2023-05-25T08:49:18;8.83;;;5.07;;
47882;SDS011;37739;50.350;7.578;2023-05-25T08:51:50;6.27;;;4.83;;
47882;SDS011;37739;50.350;7.578;2023-05-25T08:54:18;6.17;;;4.70;;
47882;SDS011;37739;50.350;7.578;2023-05-25T08:56:50;6.93;;;3.90;;
47882;SDS011;37739;50.350;7.578;2023-05-25T09:01:50;7.47;;;4.20;;
47882;SDS011;37739;50.350;7.578;2023-05-25T09:04:17;6.40;;;4.13;;
47882;SDS011;37739;50.350;7.578;2023-05-25T09:06:47;5.23;;;3.83;;
47882;SDS011;37739;50.350;7.578;2023-05-25T09:09:13;6.70;;;4.03;;
47882;SDS011;37739;50.350;7.578;2023-05-25T09:11:38;5.80;;;4.60;;
47882;SDS011;37739;50.350;7.578;2023-05-25T09:14:08;10.07;;;4.83;;
47882;SDS011;37739;50.350;7.578;2023-05-25T09:16:34;6.37;;;3.70;;
47882;SDS011;37739;50.350;7.578;2023-05-25T09:19:02;6.13;;;3.97;;
47882;SDS011;37739;50.350;7.578;2023-05-25T09:21:27;6.00;;;5.10;;
47882;SDS011;37739;50.350;7.578;2023-05-25T09:23:52;10.00;;;5.07;;
47882;SDS011;37739;50.350;7.578;2023-05-25T09:26:20;4.90;;;3.77;;
47882;SDS011;37739;50.350;7.578;2023-05-25T09:28:46;4.37;;;3.70;;
47882;SDS011;37739;50.350;7.578;2023-05-25T09:31:16;4.57;;;2.93;;
47882;SDS011;37739;50.350;7.578;2023-05-25T09:33:42;5.07;;;4.00;;
47882;SDS011;37739;50.350;7.578;2023-05-25T09:36:07;7.60;;;4.50;;
47882;SDS011;37739;50.350;7.578;2023-05-25T09:38:38;6.20;;;4.07;;
47882;SDS011;37739;50.350;7.578;2023-05-25T09:41:04;5.73;;;4.40;;
47882;SDS011;37739;50.350;7.578;2023-05-25T09:43:30;6.73;;;3.97;;
47882;SDS011;37739;50.350;7.578;2023-05-25T09:45:56;4.83;;;3.27;;
47882;SDS011;37739;50.350;7.578;2023-05-25T09:48:26;4.37;;;3.17;;
47882;SDS011;37739;50.350;7.578;2023-05-25T09:50:56;4.83;;;3.33;;
47882;SDS011;37739;50.350;7.578;2023-05-25T09:53:22;4.43;;;3.57;;
47882;SDS011;37739;50.350;7.578;2023-05-25T09:55:47;5.53;;;3.53;;
47882;SDS011;37739;50.350;7.578;2023-05-25T09:58:15;5.20;;;3.70;;
47882;SDS011;37739;50.350;7.578;2023-05-25T10:00:43;3.33;;;2.90;;
47882;SDS011;37739;50.350;7.578;2023-05-25T10:03:09;3.17;;;2.70;;
47882;SDS011;37739;50.350;7.578;2023-05-25T10:05:38;5.83;;;3.10;;
47882;SDS011;37739;50.350;7.578;2023-05-25T10:08:04;4.93;;;2.87;;
47882;SDS011;37739;50.350;7.578;2023-05-25T10:10:30;3.50;;;2.80;;
47882;SDS011;37739;50.350;7.578;2023-05-25T10:13:01;3.37;;;2.80;;
47882;SDS011;37739;50.350;7.578;2023-05-25T10:15:27;4.33;;;3.20;;
47882;SDS011;37739;50.350;7.578;2023-05-25T10:17:57;4.67;;;3.00;;
47882;SDS011;37739;50.350;7.578;2023-05-25T10:20:26;4.40;;;2.70;;
47882;SDS011;37739;50.350;7.578;2023-05-25T10:23:08;3.43;;;2.60;;
47882;SDS011;37739;50.350;7.578;2023-05-25T10:25:39;4.57;;;3.23;;
47882;SDS011;37739;50.350;7.578;2023-05-25T10:31:03;5.17;;;3.47;;
47882;SDS011;37739;50.350;7.578;2023-05-25T10:33:32;4.20;;;2.90;;
47882;SDS011;37739;50.350;7.578;2023-05-25T10:35:58;3.67;;;2.80;;
47882;SDS011;37739;50.350;7.578;2023-05-25T10:38:27;4.00;;;2.60;;
47882;SDS011;37739;50.350;7.578;2023-05-25T10:40:55;4.50;;;3.10;;
47882;SDS011;37739;50.350;7.578;2023-05-25T10:43:23;4.03;;;3.03;;
47882;SDS011;37739;50.350;7.578;2023-05-25T10:45:50;5.27;;;3.57;;
47882;SDS011;37739;50.350;7.578;2023-05-25T10:48:15;5.80;;;2.87;;
47882;SDS011;37739;50.350;7.578;2023-05-25T10:50:41;3.80;;;2.77;;
47882;SDS011;37739;50.350;7.578;2023-05-25T10:55:41;2.93;;;2.33;;
47882;SDS011;37739;50.350;7.578;2023-05-25T10:58:11;3.00;;;2.70;;
47882;SDS011;37739;50.350;7.578;2023-05-25T11:00:40;4.70;;;2.83;;
47882;SDS011;37739;50.350;7.578;2023-05-25T11:03:06;4.87;;;2.63;;
47882;SDS011;37739;50.350;7.578;2023-05-25T11:05:33;3.67;;;3.10;;
47882;SDS011;37739;50.350;7.578;2023-05-25T11:08:00;4.07;;;2.73;;
47882;SDS011;37739;50.350;7.578;2023-05-25T11:13:36;3.57;;;3.20;;
47882;SDS011;37739;50.350;7.578;2023-05-25T11:26:33;3.10;;;2.43;;
47882;SDS011;37739;50.350;7.578;2023-05-25T11:28:59;4.30;;;3.33;;
47882;SDS011;37739;50.350;7.578;2023-05-25T11:31:31;4.27;;;3.20;;
47882;SDS011;37739;50.350;7.578;2023-05-25T11:34:01;5.13;;;3.17;;
47882;SDS011;37739;50.350;7.578;2023-05-25T11:36:31;7.07;;;3.03;;
47882;SDS011;37739;50.350;7.578;2023-05-25T11:38:59;3.83;;;2.70;;
47882;SDS011;37739;50.350;7.578;2023-05-25T11:41:28;4.27;;;3.10;;
47882;SDS011;37739;50.350;7.578;2023-05-25T11:43:54;3.20;;;2.53;;
47882;SDS011;37739;50.350;7.578;2023-05-25T11:46:22;3.30;;;3.00;;
47882;SDS011;37739;50.350;7.578;2023-05-25T11:48:50;4.80;;;3.20;;
47882;SDS011;37739;50.350;7.578;2023-05-25T11:51:25;6.10;;;3.07;;
47882;SDS011;37739;50.350;7.578;2023-05-25T11:53:55;3.53;;;2.60;;
47882;SDS011;37739;50.350;7.578;2023-05-25T11:56:20;3.67;;;2.90;;
47882;SDS011;37739;50.350;7.578;2023-05-25T11:58:49;3.53;;;2.77;;
47882;SDS011;37739;50.350;7.578;2023-05-25T12:01:15;3.73;;;2.70;;
47882;SDS011;37739;50.350;7.578;2023-05-25T12:03:47;2.63;;;2.37;;
47882;SDS011;37739;50.350;7.578;2023-05-25T12:06:31;2.90;;;2.70;;
47882;SDS011;37739;50.350;7.578;2023-05-25T12:09:09;4.73;;;2.67;;
47882;SDS011;37739;50.350;7.578;2023-05-25T12:11:37;3.93;;;2.90;;
47882;SDS011;37739;50.350;7.578;2023-05-25T12:14:03;5.17;;;3.53;;
47882;SDS011;37739;50.350;7.578;2023-05-25T12:16:30;3.20;;;2.50;;
47882;SDS011;37739;50.350;7.578;2023-05-25T12:18:58;3.23;;;2.60;;
47882;SDS011;37739;50.350;7.578;2023-05-25T12:21:24;2.70;;;2.40;;
47882;SDS011;37739;50.350;7.578;2023-05-25T12:23:52;3.87;;;3.47;;
47882;SDS011;37739;50.350;7.578;2023-05-25T12:26:19;3.00;;;2.50;;
47882;SDS011;37739;50.350;7.578;2023-05-25T12:29:00;4.13;;;2.83;;
47882;SDS011;37739;50.350;7.578;2023-05-25T12:31:27;3.90;;;3.00;;
47882;SDS011;37739;50.350;7.578;2023-05-25T12:39:15;5.97;;;2.97;;
47882;SDS011;37739;50.350;7.578;2023-05-25T12:41:49;3.93;;;2.90;;
47882;SDS011;37739;50.350;7.578;2023-05-25T12:44:19;3.93;;;2.60;;
47882;SDS011;37739;50.350;7.578;2023-05-25T12:46:51;3.00;;;2.57;;
47882;SDS011;37739;50.350;7.578;2023-05-25T12:49:25;4.53;;;2.93;;
47882;SDS011;37739;50.350;7.578;2023-05-25T12:51:57;5.17;;;3.23;;
47882;SDS011;37739;50.350;7.578;2023-05-25T12:57:14;5.00;;;2.70;;
47882;SDS011;37739;50.350;7.578;2023-05-25T12:59:45;2.90;;;2.67;;
47882;SDS011;37739;50.350;7.578;2023-05-25T13:02:14;3.47;;;2.70;;
47882;SDS011;37739;50.350;7.578;2023-05-25T13:04:39;3.17;;;2.50;;
47882;SDS011;37739;50.350;7.578;2023-05-25T13:07:09;4.43;;;2.70;;
47882;SDS011;37739;50.350;7.578;2023-05-25T13:09:37;4.63;;;2.63;;
47882;SDS011;37739;50.350;7.578;2023-05-25T13:12:03;4.03;;;2.80;;
47882;SDS011;37739;50.350;7.578;2023-05-25T13:14:28;4.33;;;2.47;;
47882;SDS011;37739;50.350;7.578;2023-05-25T13:16:54;5.07;;;2.57;;
47882;SDS011;37739;50.350;7.578;2023-05-25T13:19:23;3.23;;;2.50;;
47882;SDS011;37739;50.350;7.578;2023-05-25T13:21:49;3.30;;;2.40;;
47882;SDS011;37739;50.350;7.578;2023-05-25T13:24:16;4.27;;;3.10;;
47882;SDS011;37739;50.350;7.578;2023-05-25T13:26:45;4.40;;;2.60;;
47882;SDS011;37739;50.350;7.578;2023-05-25T13:29:13;5.33;;;2.70;;
47882;SDS011;37739;50.350;7.578;2023-05-25T13:31:39;5.00;;;2.50;;
47882;SDS011;37739;50.350;7.578;2023-05-25T13:34:07;3.10;;;2.80;;
47882;SDS011;37739;50.350;7.578;2023-05-25T13:36:33;3.20;;;2.53;;
47882;SDS011;37739;50.350;7.578;2023-05-25T13:38:59;3.83;;;2.30;;
47882;SDS011;37739;50.350;7.578;2023-05-25T13:41:29;2.87;;;2.43;;
47882;SDS011;37739;50.350;7.578;2023-05-25T13:43:56;3.43;;;2.50;;
47882;SDS011;37739;50.350;7.578;2023-05-25T13:46:24;4.47;;;2.73;;
47882;SDS011;37739;50.350;7.578;2023-05-25T13:48:53;2.40;;;2.00;;
47882;SDS011;37739;50.350;7.578;2023-05-25T13:51:21;2.97;;;2.10;;
47882;SDS011;37739;50.350;7.578;2023-05-25T13:53:47;2.30;;;2.10;;
47882;SDS011;37739;50.350;7.578;2023-05-25T13:56:13;3.97;;;2.60;;
47882;SDS011;37739;50.350;7.578;2023-05-25T13:58:38;2.60;;;2.10;;
47882;SDS011;37739;50.350;7.578;2023-05-25T14:01:06;2.30;;;2.10;;
47882;SDS011;37739;50.350;7.578;2023-05-25T14:03:31;4.30;;;2.87;;
47882;SDS011;37739;50.350;7.578;2023-05-25T14:06:05;2.63;;;2.43;;
47882;SDS011;37739;50.350;7.578;2023-05-25T14:08:31;3.63;;;2.30;;
47882;SDS011;37739;50.350;7.578;2023-05-25T14:10:56;3.17;;;2.40;;
47882;SDS011;37739;50.350;7.578;2023-05-25T14:13:24;3.03;;;2.00;;
47882;SDS011;37739;50.350;7.578;2023-05-25T14:15:49;2.80;;;2.40;;
47882;SDS011;37739;50.350;7.578;2023-05-25T14:18:17;2.37;;;2.17;;
47882;SDS011;37739;50.350;7.578;2023-05-25T14:20:43;2.63;;;2.10;;
47882;SDS011;37739;50.350;7.578;2023-05-25T14:23:08;2.40;;;2.00;;
47882;SDS011;37739;50.350;7.578;2023-05-25T14:25:38;4.37;;;2.27;;
47882;SDS011;37739;50.350;7.578;2023-05-25T14:28:04;2.60;;;2.23;;
47882;SDS011;37739;50.350;7.578;2023-05-25T14:30:31;2.60;;;2.33;;
47882;SDS011;37739;50.350;7.578;2023-05-25T14:32:56;3.40;;;2.20;;
47882;SDS011;37739;50.350;7.578;2023-05-25T14:35:24;2.33;;;2.10;;
47882;SDS011;37739;50.350;7.578;2023-05-25T14:37:54;2.17;;;1.70;;
47882;SDS011;37739;50.350;7.578;2023-05-25T14:40:21;2.33;;;2.13;;
47882;SDS011;37739;50.350;7.578;2023-05-25T14:42:47;2.70;;;2.13;;
47882;SDS011;37739;50.350;7.578;2023-05-25T14:45:12;3.97;;;2.50;;
47882;SDS011;37739;50.350;7.578;2023-05-25T14:47:38;3.20;;;1.83;;
47882;SDS011;37739;50.350;7.578;2023-05-25T14:50:04;3.57;;;2.50;;
47882;SDS011;37739;50.350;7.578;2023-05-25T14:52:29;3.10;;;2.00;;
47882;SDS011;37739;50.350;7.578;2023-05-25T14:54:57;2.33;;;1.97;;
47882;SDS011;37739;50.350;7.578;2023-05-25T14:57:22;3.07;;;2.63;;
47882;SDS011;37739;50.350;7.578;2023-05-25T14:59:50;3.90;;;2.27;;
47882;SDS011;37739;50.350;7.578;2023-05-25T15:02:17;3.00;;;2.33;;
47882;SDS011;37739;50.350;7.578;2023-05-25T15:04:43;2.13;;;1.80;;
47882;SDS011;37739;50.350;7.578;2023-05-25T15:07:08;3.77;;;2.27;;
47882;SDS011;37739;50.350;7.578;2023-05-25T15:09:38;2.57;;;2.37;;
47882;SDS011;37739;50.350;7.578;2023-05-25T15:12:04;3.10;;;2.30;;
47882;SDS011;37739;50.350;7.578;2023-05-25T15:14:34;4.30;;;2.57;;
47882;SDS011;37739;50.350;7.578;2023-05-25T15:17:03;3.17;;;2.40;;
47882;SDS011;37739;50.350;7.578;2023-05-25T15:19:33;4.27;;;2.90;;
47882;SDS011;37739;50.350;7.578;2023-05-25T15:21:58;5.77;;;3.10;;
47882;SDS011;37739;50.350;7.578;2023-05-25T15:24:24;4.70;;;3.03;;